Time;durP1;ratioP1;P1;durP2;ratioP2;P2;SDS_P1;SDS_P2;PMS_P1;PMS_P2;Temp;Humidity;BMP_temperature;BMP_pressure;BME280_temperature;BME280_humidity;BME280_pressure;Samples;Min_cycle;Max_cycle;Signal;HPM_P1;HPM_P2
2022/07/20 00:01:39;;;;;;;;;;;;;;;26.81;100.00;98427.50;5056357;28;19925;-79
2022/07/20 00:04:07;;;;;;;;;;;;;;;27.20;100.00;98415.31;5056195;28;20323;-79
2022/07/20 00:06:35;;;;;;;;;;;;;;;27.03;100.00;98398.44;5055055;28;19925;-79
2022/07/20 00:11:48;;;;;;;;;;;;;;;28.16;100.00;98405.63;5055170;28;19942;-79
2022/07/20 00:14:15;;;;;;;;;;;;;;;28.17;100.00;98396.44;5056394;28;19931;-79
2022/07/20 00:16:42;;;;;;;;;;;;;;;28.25;100.00;98393.63;5056166;28;19932;-79
2022/07/20 00:19:09;;;;;;;;;;;;;;;28.10;100.00;98396.38;5056267;28;19925;-79
2022/07/20 00:21:36;;;;;;;;;;;;;;;28.15;100.00;98392.59;5055858;28;19951;-79
2022/07/20 00:24:03;;;;;;;;;;;;;;;28.23;100.00;98393.44;5054941;28;19936;-79
2022/07/20 00:26:30;;;;;;;;;;;;;;;27.86;100.00;98394.59;5055747;28;19924;-79
2022/07/20 00:28:58;;;;;;;;;;;;;;;27.68;100.00;98383.25;5055602;28;19932;-79
2022/07/20 00:31:25;;;;;;;;;;;;;;;28.11;100.00;98384.31;5054874;28;20332;-79
2022/07/20 00:33:52;;;;;;;;;;;;;;;27.11;100.00;98381.34;5053653;28;20019;-79
2022/07/20 00:36:20;;;;;;;;;;;;;;;27.69;100.00;98385.56;5054940;28;19925;-79
2022/07/20 00:38:47;;;;;;;;;;;;;;;27.37;100.00;98392.81;5053900;28;19924;-79
2022/07/20 00:41:14;;;;;;;;;;;;;;;27.71;100.00;98394.38;5054683;28;19925;-79
2022/07/20 00:43:54;;;;;;;;;;;;;;;28.07;100.00;98392.53;5054906;28;19948;-79
2022/07/20 00:46:21;;;;;;;;;;;;;;;28.15;100.00;98401.22;5054857;28;19955;-79
2022/07/20 00:48:48;;;;;;;;;;;;;;;27.80;100.00;98396.00;5054627;28;19924;-79
2022/07/20 00:51:16;;;;;;;;;;;;;;;27.98;100.00;98395.09;5053517;28;19932;-79
2022/07/20 00:53:44;;;;;;;;;;;;;;;28.08;100.00;98387.56;5054557;28;19929;-79
2022/07/20 00:56:12;;;;;;;;;;;;;;;27.84;100.00;98387.81;5054388;28;20019;-79
2022/07/20 00:58:39;;;;;;;;;;;;;;;27.39;100.00;98384.41;5053458;28;19924;-80
2022/07/20 01:01:07;;;;;;;;;;;;;;;27.66;100.00;98386.66;5053092;28;19963;-79
2022/07/20 01:03:34;;;;;;;;;;;;;;;27.65;100.00;98395.84;5054449;28;19936;-79
2022/07/20 01:06:01;;;;;;;;;;;;;;;27.07;100.00;98398.88;5053178;28;19974;-79
2022/07/20 01:08:28;;;;;;;;;;;;;;;27.15;100.00;98398.97;5054386;28;19925;-79
2022/07/20 01:10:56;;;;;;;;;;;;;;;27.38;100.00;98405.81;5054040;28;19956;-79
2022/07/20 01:13:24;;;;;;;;;;;;;;;27.23;100.00;98406.38;5036556;28;19979;-79
2022/07/20 01:15:51;;;;;;;;;;;;;;;27.12;100.00;98400.06;5052181;28;20019;-79
2022/07/20 01:18:18;;;;;;;;;;;;;;;26.96;100.00;98401.94;5051907;28;20313;-79
2022/07/20 01:20:47;;;;;;;;;;;;;;;26.54;100.00;98397.25;5052891;28;20367;-79
2022/07/20 01:23:14;;;;;;;;;;;;;;;26.70;100.00;98404.03;5052047;28;19929;-79
2022/07/20 01:25:41;;;;;;;;;;;;;;;27.01;100.00;98408.88;5051797;28;19956;-79
2022/07/20 01:28:11;;;;;;;;;;;;;;;27.10;100.00;98417.03;5051339;28;19928;-79
2022/07/20 01:30:39;;;;;;;;;;;;;;;27.25;100.00;98423.81;5052374;28;19932;-79
2022/07/20 01:33:06;;;;;;;;;;;;;;;26.94;100.00;98426.75;5069357;28;20304;-79
2022/07/20 01:35:33;;;;;;;;;;;;;;;26.87;100.00;98430.28;5052694;28;20437;-79
2022/07/20 01:38:00;;;;;;;;;;;;;;;26.90;100.00;98426.31;5052276;28;20384;-79
2022/07/20 01:40:27;;;;;;;;;;;;;;;25.85;100.00;98437.41;5051893;28;20294;-79
2022/07/20 01:42:54;;;;;;;;;;;;;;;26.08;100.00;98452.94;5053745;28;19924;-79
2022/07/20 01:45:22;;;;;;;;;;;;;;;26.20;100.00;98448.56;5053729;28;19975;-79
2022/07/20 01:47:49;;;;;;;;;;;;;;;26.32;100.00;98449.94;5052396;28;19936;-79
2022/07/20 01:50:16;;;;;;;;;;;;;;;26.29;100.00;98445.31;5035683;28;20300;-79
2022/07/20 01:52:43;;;;;;;;;;;;;;;26.38;100.00;98447.00;5053514;28;19928;-79
2022/07/20 01:55:10;;;;;;;;;;;;;;;26.61;100.00;98438.81;5053460;28;19931;-79
2022/07/20 01:57:38;;;;;;;;;;;;;;;26.76;100.00;98436.22;5053442;28;19924;-79
2022/07/20 02:00:07;;;;;;;;;;;;;;;26.48;100.00;98431.72;5035823;28;19936;-79
2022/07/20 02:02:38;;;;;;;;;;;;;;;26.61;100.00;98430.22;5053345;28;20020;-79
2022/07/20 02:05:05;;;;;;;;;;;;;;;26.69;100.00;98434.00;5051670;28;20447;-79
2022/07/20 02:07:32;;;;;;;;;;;;;;;25.69;100.00;98444.13;5053020;28;20388;-79
2022/07/20 02:10:01;;;;;;;;;;;;;;;25.81;100.00;98439.78;5053262;28;19925;-79
2022/07/20 02:12:28;;;;;;;;;;;;;;;25.80;100.00;98443.97;5035061;28;20273;-79
2022/07/20 02:14:55;;;;;;;;;;;;;;;25.66;100.00;98444.41;5053134;28;20002;-79
2022/07/20 02:17:22;;;;;;;;;;;;;;;26.05;100.00;98454.00;5053053;28;20358;-79
2022/07/20 02:19:49;;;;;;;;;;;;;;;26.35;100.00;98437.41;5051976;28;19932;-79
2022/07/20 02:22:16;;;;;;;;;;;;;;;26.21;100.00;98432.97;5084972;28;20295;-79
2022/07/20 02:24:43;;;;;;;;;;;;;;;26.04;100.00;98429.59;5085300;28;19979;-79
2022/07/20 02:27:10;;;;;;;;;;;;;;;25.54;100.00;98423.78;5035182;28;20366;-79
2022/07/20 02:29:38;;;;;;;;;;;;;;;25.65;100.00;98426.50;5052956;28;19925;-79
2022/07/20 02:32:06;;;;;;;;;;;;;;;25.75;100.00;98424.03;5052969;28;19932;-79
2022/07/20 02:34:33;;;;;;;;;;;;;;;25.99;100.00;98421.84;5051782;28;19963;-79
2022/07/20 02:37:00;;;;;;;;;;;;;;;26.01;100.00;98427.03;5052688;28;19924;-79
2022/07/20 02:39:27;;;;;;;;;;;;;;;26.07;100.00;98419.13;5052965;28;19925;-79
2022/07/20 02:41:55;;;;;;;;;;;;;;;25.97;100.00;98421.59;5052896;28;19928;-79
2022/07/20 02:44:22;;;;;;;;;;;;;;;25.45;100.00;98418.44;5051729;28;20301;-79
2022/07/20 02:46:49;;;;;;;;;;;;;;;25.53;100.00;98412.88;5051632;28;19932;-79
2022/07/20 02:49:16;;;;;;;;;;;;;;;25.19;100.00;98418.22;5051600;28;19925;-79
2022/07/20 02:51:43;;;;;;;;;;;;;;;25.30;100.00;98417.31;5052604;28;19932;-79
2022/07/20 02:54:11;;;;;;;;;;;;;;;25.36;100.00;98415.97;5052845;28;19931;-79
2022/07/20 02:56:38;;;;;;;;;;;;;;;25.36;100.00;98420.91;5052608;28;19924;-79
2022/07/20 02:59:05;;;;;;;;;;;;;;;25.34;100.00;98412.84;5085034;28;19972;-79
2022/07/20 03:01:32;;;;;;;;;;;;;;;25.38;100.00;98413.34;5052822;28;19970;-79
2022/07/20 03:04:02;;;;;;;;;;;;;;;25.39;100.00;98409.16;5052515;28;20027;-79
2022/07/20 03:06:30;;;;;;;;;;;;;;;24.86;100.00;98417.81;5051106;28;20201;-79
2022/07/20 03:08:57;;;;;;;;;;;;;;;24.23;100.00;98426.72;5066300;28;20299;-79
2022/07/20 03:11:24;;;;;;;;;;;;;;;24.25;100.00;98439.13;5050569;28;19979;-79
2022/07/20 03:13:52;;;;;;;;;;;;;;;24.56;100.00;98432.91;5050623;28;19925;-79
2022/07/20 03:16:19;;;;;;;;;;;;;;;24.15;100.00;98443.63;5032926;28;20024;-79
2022/07/20 03:18:47;;;;;;;;;;;;;;;24.37;100.00;98443.44;5051151;28;19925;-79
2022/07/20 03:21:14;;;;;;;;;;;;;;;24.31;100.00;98451.28;5050873;28;19931;-79
2022/07/20 03:23:41;;;;;;;;;;;;;;;24.41;100.00;98458.22;5052595;28;19925;-79
2022/07/20 03:26:08;;;;;;;;;;;;;;;24.01;100.00;98452.53;5055110;28;19925;-79
2022/07/20 03:28:36;;;;;;;;;;;;;;;24.47;100.00;98455.31;5054978;28;20307;-79
2022/07/20 03:31:03;;;;;;;;;;;;;;;23.83;100.00;98456.78;5038084;28;19932;-79
2022/07/20 03:33:30;;;;;;;;;;;;;;;23.72;100.00;98456.09;5054430;28;19925;-79
2022/07/20 03:35:57;;;;;;;;;;;;;;;23.86;100.00;98463.50;5056158;28;19924;-79
2022/07/20 03:38:24;;;;;;;;;;;;;;;24.05;100.00;98464.47;5055177;28;19925;-79
2022/07/20 03:40:51;;;;;;;;;;;;;;;24.26;100.00;98457.03;5054864;28;19925;-79
2022/07/20 03:43:18;;;;;;;;;;;;;;;23.89;100.00;98466.09;5054810;28;20193;-79
2022/07/20 03:45:45;;;;;;;;;;;;;;;24.04;100.00;98462.91;5054706;28;19929;-79
2022/07/20 03:48:12;;;;;;;;;;;;;;;24.23;100.00;98463.81;5088197;28;19968;-79
2022/07/20 03:50:39;;;;;;;;;;;;;;;24.13;100.00;98471.91;5055567;28;20287;-79
2022/07/20 03:53:06;;;;;;;;;;;;;;;23.96;100.00;98468.41;5055944;28;20368;-79
2022/07/20 03:55:33;;;;;;;;;;;;;;;23.48;100.00;98484.47;5055802;28;19925;-79
2022/07/20 03:58:00;;;;;;;;;;;;;;;23.91;100.00;98465.56;5055533;28;19925;-79
2022/07/20 04:00:28;;;;;;;;;;;;;;;24.20;100.00;98476.28;5055733;28;19928;-79
2022/07/20 04:02:55;;;;;;;;;;;;;;;23.96;100.00;98476.19;5055762;28;19928;-79
2022/07/20 04:05:22;;;;;;;;;;;;;;;23.54;100.00;98488.06;5054359;28;20372;-79
2022/07/20 04:07:50;;;;;;;;;;;;;;;23.52;100.00;98496.38;5054365;28;19924;-79
2022/07/20 04:10:17;;;;;;;;;;;;;;;23.56;100.00;98496.84;5055417;28;19924;-78
2022/07/20 04:12:56;;;;;;;;;;;;;;;23.23;100.00;98508.34;5055464;28;20031;-79
2022/07/20 04:15:23;;;;;;;;;;;;;;;23.01;100.00;98504.25;5055338;28;20014;-79
2022/07/20 04:17:51;;;;;;;;;;;;;;;22.99;100.00;98501.16;5053999;28;20008;-79
2022/07/20 04:20:18;;;;;;;;;;;;;;;22.64;100.00;98503.78;5055369;28;19990;-79
2022/07/20 04:22:45;;;;;;;;;;;;;;;22.39;100.00;98490.56;5055210;28;19924;-79
2022/07/20 04:25:12;;;;;;;;;;;;;;;22.57;100.00;98492.13;5054071;28;19925;-78
2022/07/20 04:27:39;;;;;;;;;;;;;;;22.46;100.00;98512.06;5054168;28;19925;-79
2022/07/20 04:30:06;;;;;;;;;;;;;;;22.41;100.00;98513.59;5070444;28;19952;-79
2022/07/20 04:32:33;;;;;;;;;;;;;;;22.61;100.00;98521.91;5053843;28;19931;-80
2022/07/20 04:35:01;;;;;;;;;;;;;;;22.43;100.00;98513.84;5055049;28;19925;-80
2022/07/20 04:37:29;;;;;;;;;;;;;;;22.59;100.00;98512.31;5054086;28;19924;-81
2022/07/20 04:39:56;;;;;;;;;;;;;;;22.90;100.00;98503.50;5053633;28;20413;-80
2022/07/20 04:42:23;;;;;;;;;;;;;;;22.85;100.00;98495.75;5054869;28;19975;-81
2022/07/20 04:44:50;;;;;;;;;;;;;;;22.97;100.00;98502.97;5054926;28;20066;-81
2022/07/20 04:47:17;;;;;;;;;;;;;;;22.55;100.00;98512.56;5054508;28;19975;-81
2022/07/20 04:49:44;;;;;;;;;;;;;;;21.98;100.00;98506.53;5053681;28;19974;-81
2022/07/20 04:52:11;;;;;;;;;;;;;;;22.34;100.00;98514.09;5054644;28;20365;-80
2022/07/20 04:54:39;;;;;;;;;;;;;;;22.35;100.00;98514.88;5054755;28;19939;-81
2022/07/20 04:57:07;;;;;;;;;;;;;;;21.82;100.00;98524.34;5054416;28;19925;-81
2022/07/20 04:59:34;;;;;;;;;;;;;;;22.04;100.00;98538.63;5053115;28;19925;-80
2022/07/20 05:02:01;;;;;;;;;;;;;;;21.80;100.00;98515.56;5053291;28;19925;-80
2022/07/20 05:04:28;;;;;;;;;;;;;;;22.01;100.00;98536.06;5055387;28;19925;-81
2022/07/20 05:06:56;;;;;;;;;;;;;;;22.04;100.00;98530.09;5055112;28;19982;-80
2022/07/20 05:09:23;;;;;;;;;;;;;;;21.88;100.00;98545.06;5055342;28;19925;-81
2022/07/20 05:11:50;;;;;;;;;;;;;;;21.78;100.00;98546.56;5055081;28;19925;-81
2022/07/20 05:14:17;;;;;;;;;;;;;;;21.74;100.00;98556.59;5055359;28;19925;-80
2022/07/20 05:16:45;;;;;;;;;;;;;;;21.68;100.00;98559.41;5055009;28;19924;-81
2022/07/20 05:19:12;;;;;;;;;;;;;;;21.72;100.00;98559.94;5055165;28;20363;-80
2022/07/20 05:21:40;;;;;;;;;;;;;;;21.45;100.00;98554.91;5037482;28;20283;-81
2022/07/20 05:24:07;;;;;;;;;;;;;;;21.99;100.00;98562.13;5055158;28;19929;-81
2022/07/20 05:26:34;;;;;;;;;;;;;;;21.96;100.00;98556.72;5054799;28;19928;-80
2022/07/20 05:29:02;;;;;;;;;;;;;;;22.15;100.00;98569.97;5037422;28;20372;-80
2022/07/20 05:31:29;;;;;;;;;;;;;;;22.41;100.00;98567.69;5054767;28;20327;-80
2022/07/20 05:33:57;;;;;;;;;;;;;;;21.94;100.00;98577.13;5037278;28;19935;-80
2022/07/20 05:36:26;;;;;;;;;;;;;;;22.08;100.00;98587.53;5086766;28;20467;-80
2022/07/20 05:38:53;;;;;;;;;;;;;;;21.67;100.00;98594.84;5053519;28;20232;-80
2022/07/20 05:41:20;;;;;;;;;;;;;;;21.78;100.00;98600.59;5051927;28;19925;-80
2022/07/20 05:43:47;;;;;;;;;;;;;;;21.89;100.00;98620.53;5053601;28;19952;-80
2022/07/20 05:46:14;;;;;;;;;;;;;;;21.87;100.00;98606.03;5053254;28;19925;-80
2022/07/20 05:48:41;;;;;;;;;;;;;;;21.75;100.00;98620.75;5052346;28;20398;-80
2022/07/20 05:51:09;;;;;;;;;;;;;;;21.99;100.00;98596.25;5068584;28;19925;-80
2022/07/20 05:53:37;;;;;;;;;;;;;;;21.95;100.00;98604.28;5052138;28;19932;-80
2022/07/20 05:56:05;;;;;;;;;;;;;;;22.13;100.00;98595.28;5052138;28;19925;-80
2022/07/20 05:58:32;;;;;;;;;;;;;;;21.86;100.00;98610.19;5053232;28;19929;-80
2022/07/20 06:00:59;;;;;;;;;;;;;;;21.98;100.00;98611.78;5052043;28;20027;-80
2022/07/20 06:03:26;;;;;;;;;;;;;;;22.00;100.00;98622.66;5052008;28;20475;-80
2022/07/20 06:05:53;;;;;;;;;;;;;;;21.77;100.00;98604.72;5052015;28;19932;-80
2022/07/20 06:08:20;;;;;;;;;;;;;;;21.76;100.00;98605.22;5051802;28;19971;-80
2022/07/20 06:10:47;;;;;;;;;;;;;;;22.13;100.00;98611.59;5068723;28;20013;-80
2022/07/20 06:13:15;;;;;;;;;;;;;;;21.77;100.00;98601.88;5052853;28;19925;-80
2022/07/20 06:15:42;;;;;;;;;;;;;;;21.85;100.00;98614.34;5049558;28;19975;-80
2022/07/20 06:18:09;;;;;;;;;;;;;;;21.57;100.00;98630.44;5084469;28;19939;-80
2022/07/20 06:20:36;;;;;;;;;;;;;;;21.28;100.00;98627.94;5051992;28;19932;-80
2022/07/20 06:23:03;;;;;;;;;;;;;;;20.86;100.00;98639.19;5051068;28;19925;-80
2022/07/20 06:25:30;;;;;;;;;;;;;;;21.60;100.00;98663.53;5051056;28;19932;-80
2022/07/20 06:28:00;;;;;;;;;;;;;;;20.63;100.00;98662.97;5050996;28;19925;-80
2022/07/20 06:30:28;;;;;;;;;;;;;;;21.09;100.00;98673.00;5052760;28;19925;-80
2022/07/20 06:32:55;;;;;;;;;;;;;;;21.60;100.00;98680.56;5052703;28;20362;-80
2022/07/20 06:35:22;;;;;;;;;;;;;;;21.40;100.00;98683.56;5053002;28;19924;-80
2022/07/20 06:37:49;;;;;;;;;;;;;;;20.88;100.00;98670.69;5052688;28;19925;-80
2022/07/20 06:40:16;;;;;;;;;;;;;;;21.25;100.00;98680.06;5051925;28;19936;-80
2022/07/20 06:42:43;;;;;;;;;;;;;;;21.43;100.00;98685.41;5053586;28;20287;-80
2022/07/20 06:45:11;;;;;;;;;;;;;;;21.71;100.00;98668.50;5052597;28;19932;-80
2022/07/20 06:47:38;;;;;;;;;;;;;;;21.79;100.00;98666.78;5052600;28;19931;-80
2022/07/20 06:50:08;;;;;;;;;;;;;;;21.80;100.00;98674.78;5068741;28;20020;-80
2022/07/20 06:52:35;;;;;;;;;;;;;;;22.09;100.00;98691.50;5053556;28;19968;-80
2022/07/20 06:55:03;;;;;;;;;;;;;;;22.41;100.00;98689.28;5053585;28;19925;-80
2022/07/20 06:57:30;;;;;;;;;;;;;;;22.00;100.00;98683.19;5053509;28;20303;-80
2022/07/20 06:59:57;;;;;;;;;;;;;;;22.03;100.00;98670.78;5038469;28;20256;-80
2022/07/20 07:02:25;;;;;;;;;;;;;;;21.70;100.00;98679.09;5057720;28;19932;-80
2022/07/20 07:04:52;;;;;;;;;;;;;;;22.60;100.00;98668.41;5057565;28;20584;-79
2022/07/20 07:07:19;;;;;;;;;;;;;;;22.29;100.00;98662.09;5057443;28;20386;-80
2022/07/20 07:09:46;;;;;;;;;;;;;;;22.99;100.00;98679.88;5056181;28;19951;-81
2022/07/20 07:12:14;;;;;;;;;;;;;;;23.40;100.00;98683.00;5056928;28;19931;-80
2022/07/20 07:14:41;;;;;;;;;;;;;;;23.78;100.00;98694.34;5057466;28;19924;-80
2022/07/20 07:17:09;;;;;;;;;;;;;;;23.49;100.00;98679.88;5089437;28;19932;-80
2022/07/20 07:19:36;;;;;;;;;;;;;;;23.52;100.00;98704.50;5057306;28;20415;-79
2022/07/20 07:22:03;;;;;;;;;;;;;;;22.71;100.00;98707.50;5039278;28;20368;-79
2022/07/20 07:24:31;;;;;;;;;;;;;;;22.17;100.00;98709.66;5055690;28;19948;-80
2022/07/20 07:27:00;;;;;;;;;;;;;;;22.48;100.00;98706.66;5099998;28;19998;-80
2022/07/20 07:29:28;;;;;;;;;;;;;;;22.39;100.00;98708.94;5056828;28;19974;-80
2022/07/20 07:32:01;;;;;;;;;;;;;;;22.55;100.00;98726.09;5055649;28;19968;-80
2022/07/20 07:34:28;;;;;;;;;;;;;;;23.12;100.00;98748.50;5055553;28;19929;-80
2022/07/20 07:36:56;;;;;;;;;;;;;;;22.98;100.00;98733.22;5056500;28;20323;-80
2022/07/20 07:39:23;;;;;;;;;;;;;;;23.38;100.00;98725.50;5055656;28;20288;-79
2022/07/20 07:41:51;;;;;;;;;;;;;;;23.27;100.00;98719.78;5055474;28;20272;-80
2022/07/20 07:44:18;;;;;;;;;;;;;;;23.57;100.00;98721.59;5055105;28;20327;-80
2022/07/20 07:46:45;;;;;;;;;;;;;;;24.59;100.00;98725.22;5055335;28;19948;-80
2022/07/20 07:49:12;;;;;;;;;;;;;;;25.00;100.00;98731.00;5056020;28;19963;-80
2022/07/20 07:51:40;;;;;;;;;;;;;;;24.35;100.00;98723.00;5055726;28;20474;-80
2022/07/20 07:54:07;;;;;;;;;;;;;;;24.15;100.00;98731.09;5056508;28;20027;-80
2022/07/20 07:56:34;;;;;;;;;;;;;;;23.58;100.00;98745.19;5071690;28;20299;-80
2022/07/20 07:59:03;;;;;;;;;;;;;;;23.24;100.00;98744.41;5056354;28;20458;-80
2022/07/20 08:01:50;;;;;;;;;;;;;;;22.98;100.00;98738.91;5056364;28;19935;-80
2022/07/20 08:04:18;;;;;;;;;;;;;;;23.62;100.00;98743.63;5090885;28;19929;-80
2022/07/20 08:06:45;;;;;;;;;;;;;;;23.66;100.00;98740.53;5076117;28;19962;-80
2022/07/20 08:09:12;;;;;;;;;;;;;;;24.24;100.00;98745.09;5074890;28;19963;-80
2022/07/20 08:11:39;;;;;;;;;;;;;;;24.73;100.00;98736.34;5074637;28;19925;-80
2022/07/20 08:14:07;;;;;;;;;;;;;;;25.44;100.00;98728.63;5076125;28;19935;-80
2022/07/20 08:16:35;;;;;;;;;;;;;;;25.46;100.00;98728.09;5074794;28;19929;-80
2022/07/20 08:19:02;;;;;;;;;;;;;;;25.82;100.00;98716.06;5074797;28;19925;-80
2022/07/20 08:21:29;;;;;;;;;;;;;;;25.15;100.00;98711.41;5057960;28;19999;-80
2022/07/20 08:24:00;;;;;;;;;;;;;;;24.69;100.00;98723.63;5074790;28;19966;-80
2022/07/20 08:26:27;;;;;;;;;;;;;;;25.05;100.00;98733.84;5075979;28;19970;-80
2022/07/20 08:28:54;;;;;;;;;;;;;;;25.00;100.00;98726.06;5075820;28;19931;-80
2022/07/20 08:31:22;;;;;;;;;;;;;;;25.57;100.00;98730.84;5058286;28;19928;-80
2022/07/20 08:33:49;;;;;;;;;;;;;;;25.34;100.00;98724.53;5074651;28;19932;-80
2022/07/20 08:36:16;;;;;;;;;;;;;;;24.75;100.00;98733.75;5075748;28;19925;-80
2022/07/20 08:38:43;;;;;;;;;;;;;;;24.18;100.00;98747.19;5075453;28;19954;-80
2022/07/20 08:41:11;;;;;;;;;;;;;;;23.91;100.00;98767.97;5075635;28;19932;-80
2022/07/20 08:43:38;;;;;;;;;;;;;;;24.13;100.00;98765.09;5075516;28;20026;-80
2022/07/20 08:46:05;;;;;;;;;;;;;;;23.79;100.00;98763.59;5075315;28;19929;-80
2022/07/20 08:48:34;;;;;;;;;;;;;;;23.77;100.00;98774.72;5075243;28;19925;-79
2022/07/20 08:51:01;;;;;;;;;;;;;;;23.93;100.00;98788.97;5074364;28;19924;-80
2022/07/20 08:53:29;;;;;;;;;;;;;;;24.21;100.00;98798.31;5075085;28;19978;-80
2022/07/20 08:55:56;;;;;;;;;;;;;;;23.80;100.00;98790.81;5076063;28;19924;-79
2022/07/20 08:58:23;;;;;;;;;;;;;;;23.45;100.00;98787.69;5074142;28;19924;-79
2022/07/20 09:00:50;;;;;;;;;;;;;;;23.95;100.00;98792.13;5057526;28;20349;-80
2022/07/20 09:03:17;;;;;;;;;;;;;;;24.49;100.00;98801.09;5074146;28;19924;-80
2022/07/20 09:05:44;;;;;;;;;;;;;;;24.44;100.00;98794.09;5073946;28;20390;-80
2022/07/20 09:08:14;;;;;;;;;;;;;;;24.72;100.00;98791.16;5075017;28;19924;-80
2022/07/20 09:10:42;;;;;;;;;;;;;;;25.21;100.00;98803.63;5073629;28;20022;-80
2022/07/20 09:13:13;;;;;;;;;;;;;;;25.63;100.00;98783.84;5057236;28;19925;-80
2022/07/20 09:15:45;;;;;;;;;;;;;;;25.74;100.00;98798.06;5075227;28;19977;-80
2022/07/20 09:18:18;;;;;;;;;;;;;;;25.81;100.00;98800.34;5074954;28;19928;-80
2022/07/20 09:20:45;;;;;;;;;;;;;;;25.74;100.00;98806.66;5074896;28;20385;-80
2022/07/20 09:23:18;;;;;;;;;;;;;;;26.54;100.00;98797.56;5038550;28;19970;-80
2022/07/20 09:25:56;;;;;;;;;;;;;;;26.84;100.00;98798.25;5063470;28;19964;-80
2022/07/20 09:28:33;;;;;;;;;;;;;;;26.87;100.00;98791.44;5054606;28;19931;-81
2022/07/20 09:31:00;;;;;;;;;;;;;;;26.89;100.00;98783.84;5053210;28;19929;-80
2022/07/20 09:33:28;;;;;;;;;;;;;;;26.79;100.00;98799.88;5053008;28;19929;-79
2022/07/20 09:35:56;;;;;;;;;;;;;;;26.84;100.00;98798.25;5085447;28;19925;-78
2022/07/20 09:38:30;;;;;;;;;;;;;;;26.75;100.00;98792.91;5053302;28;19924;-78
2022/07/20 09:40:58;;;;;;;;;;;;;;;26.69;100.00;98792.19;5053744;28;19936;-79
2022/07/20 09:43:32;;;;;;;;;;;;;;;26.86;100.00;98787.00;5054306;28;20298;-79
2022/07/20 09:46:10;;;;;;;;;;;;;;;26.00;100.00;98781.22;5086284;28;19932;-79
2022/07/20 09:48:51;;;;;;;;;;;;;;;25.80;100.00;98790.19;5053156;28;19968;-79
2022/07/20 09:51:20;;;;;;;;;;;;;;;26.30;100.00;98799.09;5054004;28;20277;-79
2022/07/20 09:53:49;;;;;;;;;;;;;;;25.21;100.00;98803.63;5054261;28;20023;-79
2022/07/20 09:56:17;;;;;;;;;;;;;;;24.80;100.00;98820.72;5069735;28;20019;-78
2022/07/20 09:58:45;;;;;;;;;;;;;;;25.59;100.00;98809.09;5054575;28;20375;-78
2022/07/20 10:01:19;;;;;;;;;;;;;;;26.00;100.00;98817.63;5053999;28;19978;-79
2022/07/20 10:03:47;;;;;;;;;;;;;;;26.09;100.00;98832.38;5054157;28;19924;-79
2022/07/20 10:06:16;;;;;;;;;;;;;;;27.23;100.00;98824.31;5036140;28;19925;-79
2022/07/20 10:08:44;;;;;;;;;;;;;;;27.19;100.00;98829.59;5089173;28;19994;-79
2022/07/20 10:11:12;;;;;;;;;;;;;;;27.34;100.00;98833.53;5071986;28;19928;-79
2022/07/20 10:13:40;;;;;;;;;;;;;;;27.41;100.00;98832.94;5073738;28;19924;-79
2022/07/20 10:16:20;;;;;;;;;;;;;;;27.58;100.00;98838.41;5073723;28;19966;-79
2022/07/20 10:18:47;;;;;;;;;;;;;;;27.11;100.00;98845.84;5072926;28;19925;-79
2022/07/20 10:21:33;;;;;;;;;;;;;;;27.82;100.00;98832.56;5072697;28;19924;-79
2022/07/20 10:24:12;;;;;;;;;;;;;;;27.87;100.00;98854.66;5073136;28;19924;-79
2022/07/20 10:26:40;;;;;;;;;;;;;;;28.19;100.00;98869.78;5056075;28;19925;-79
2022/07/20 10:29:07;;;;;;;;;;;;;;;27.50;100.00;98866.19;5073395;28;20386;-79
2022/07/20 10:31:54;;;;;;;;;;;;;;;27.16;100.00;98873.69;5073551;28;19947;-79
2022/07/20 10:34:36;;;;;;;;;;;;;;;27.23;100.00;98867.31;5073188;28;19924;-78
2022/07/20 10:37:18;;;;;;;;;;;;;;;27.11;100.00;98860.94;5072555;28;19932;-79
2022/07/20 10:39:46;;;;;;;;;;;;;;;26.63;100.00;98868.84;5106499;28;19978;-79
2022/07/20 10:42:37;;;;;;;;;;;;;;;26.83;100.00;98877.72;5073542;28;19925;-79
2022/07/20 10:45:19;;;;;;;;;;;;;;;25.91;100.00;98873.13;5073323;28;20311;-79
2022/07/20 10:47:48;;;;;;;;;;;;;;;26.57;100.00;98879.56;5073665;28;19924;-79
2022/07/20 10:50:20;;;;;;;;;;;;;;;26.19;100.00;98870.81;5072153;28;20023;-79
2022/07/20 10:52:48;;;;;;;;;;;;;;;26.43;100.00;98862.22;5072299;28;19924;-79
2022/07/20 10:55:34;;;;;;;;;;;;;;;26.34;100.00;98859.72;5072343;28;19931;-79
2022/07/20 10:58:02;;;;;;;;;;;;;;;26.26;100.00;98863.72;5073437;28;19925;-79
2022/07/20 11:00:30;;;;;;;;;;;;;;;26.46;100.00;98852.56;5072125;28;19936;-79
2022/07/20 11:02:58;;;;;;;;;;;;;;;26.27;100.00;98866.06;5072162;28;19931;-79
2022/07/20 11:05:25;;;;;;;;;;;;;;;25.58;100.00;98861.13;5055378;28;19964;-79
2022/07/20 11:07:52;;;;;;;;;;;;;;;25.66;100.00;98874.31;5073372;28;19928;-79
2022/07/20 11:10:24;;;;;;;;;;;;;;;25.33;100.00;98868.03;5073243;28;19928;-79
2022/07/20 11:12:57;;;;;;;;;;;;;;;25.57;100.00;98877.50;5073208;28;20382;-79
2022/07/20 11:15:38;;;;;;;;;;;;;;;25.31;100.00;98876.34;5072057;28;20317;-79
2022/07/20 11:18:06;;;;;;;;;;;;;;;25.78;100.00;98881.53;5105717;28;19929;-79
2022/07/20 11:20:33;;;;;;;;;;;;;;;25.28;100.00;98875.31;5072211;28;19924;-79
2022/07/20 11:23:01;;;;;;;;;;;;;;;25.35;100.00;98883.38;5073114;28;19932;-79
2022/07/20 11:25:48;;;;;;;;;;;;;;;25.21;100.00;98875.88;5072193;28;19931;-79
2022/07/20 11:28:20;;;;;;;;;;;;;;;25.50;100.00;98877.31;5073143;28;19928;-79
2022/07/20 11:30:48;;;;;;;;;;;;;;;25.60;100.00;98882.16;5105603;28;19924;-79
2022/07/20 11:33:21;;;;;;;;;;;;;;;26.33;100.00;98875.38;5072982;28;19967;-79
2022/07/20 11:35:49;;;;;;;;;;;;;;;26.57;100.00;98873.84;5066125;28;19956;-79
2022/07/20 11:38:16;;;;;;;;;;;;;;;26.95;100.00;98864.00;5060360;28;20391;-79
2022/07/20 11:40:55;;;;;;;;;;;;;;;26.64;100.00;98868.31;5083180;28;19925;-79
2022/07/20 11:43:22;;;;;;;;;;;;;;;26.66;100.00;98870.63;5066458;28;19925;-79
2022/07/20 11:45:52;;;;;;;;;;;;;;;26.57;100.00;98870.97;5061539;28;19932;-79
2022/07/20 11:48:21;;;;;;;;;;;;;;;25.96;100.00;98888.69;5074564;28;19936;-78
2022/07/20 11:51:00;;;;;;;;;;;;;;;25.71;100.00;98884.97;5108240;28;20027;-78
2022/07/20 11:53:29;;;;;;;;;;;;;;;26.28;100.00;98886.84;5075926;28;20290;-78
2022/07/20 11:55:57;;;;;;;;;;;;;;;25.65;100.00;98889.94;5074672;28;19924;-78
2022/07/20 11:58:35;;;;;;;;;;;;;;;25.67;100.00;98889.41;5076039;28;19969;-78
2022/07/20 12:01:04;;;;;;;;;;;;;;;25.19;100.00;98904.22;5072656;28;20026;-78
2022/07/20 12:03:32;;;;;;;;;;;;;;;25.19;100.00;98895.63;5074351;28;19925;-77
2022/07/20 12:06:00;;;;;;;;;;;;;;;24.95;100.00;98895.47;5072133;28;20425;-79
2022/07/20 12:08:28;;;;;;;;;;;;;;;25.01;100.00;98901.94;5075847;28;19924;-78
2022/07/20 12:10:55;;;;;;;;;;;;;;;25.18;100.00;98913.31;5074396;28;19925;-79
2022/07/20 12:13:23;;;;;;;;;;;;;;;25.18;100.00;98896.94;5074343;28;19925;-79
2022/07/20 12:16:00;;;;;;;;;;;;;;;25.14;100.00;98902.16;5075527;28;19935;-78
2022/07/20 12:18:33;;;;;;;;;;;;;;;25.07;100.00;98914.13;5074310;28;19924;-78
2022/07/20 12:21:05;;;;;;;;;;;;;;;25.05;100.00;98928.19;5106019;28;19931;-79
2022/07/20 12:23:33;;;;;;;;;;;;;;;25.18;100.00;98911.25;5074526;28;19924;-79
2022/07/20 12:26:01;;;;;;;;;;;;;;;24.86;100.00;98921.50;5072893;28;19924;-78
2022/07/20 12:28:30;;;;;;;;;;;;;;;24.48;100.00;98930.88;5074430;28;19924;-78
2022/07/20 12:31:20;;;;;;;;;;;;;;;24.41;100.00;98917.16;5074901;28;19924;-79
2022/07/20 12:34:06;;;;;;;;;;;;;;;24.76;100.00;98911.66;5110208;28;19924;-78
2022/07/20 12:36:34;;;;;;;;;;;;;;;24.74;100.00;98925.69;5077702;28;19931;-78
2022/07/20 12:39:03;;;;;;;;;;;;;;;25.68;100.00;98923.22;5075698;28;20311;-78
2022/07/20 12:41:31;;;;;;;;;;;;;;;25.96;100.00;98911.59;5075719;28;20019;-79
2022/07/20 12:44:25;;;;;;;;;;;;;;;25.32;100.00;98913.03;5074801;28;19963;-79
2022/07/20 12:46:53;;;;;;;;;;;;;;;25.11;100.00;98931.03;5075529;28;19928;-79